createdAt,value
2023-03-11T00:02:08.584Z,97.17871
2023-03-11T00:07:09.496Z,97.11621
2023-03-11T00:12:09.316Z,97.2627
2023-03-11T00:17:08.694Z,97.07813
2023-03-11T00:22:09.948Z,97.24121
2023-03-11T00:27:08.633Z,97.22656
2023-03-11T00:32:08.611Z,97.22656
2023-03-11T00:37:10.188Z,97.08691
2023-03-11T00:42:08.976Z,97.09766
2023-03-11T00:47:08.606Z,97.18164
2023-03-11T00:52:08.778Z,97.01855
2023-03-11T00:57:08.463Z,97.08691
2023-03-11T01:02:08.621Z,97.15625
2023-03-11T01:07:10.428Z,97.02734
2023-03-11T01:12:08.541Z,97.16992
2023-03-11T01:17:08.520Z,97.18457
2023-03-11T01:22:10.063Z,97.18066
2023-03-11T01:27:08.544Z,97.125
2023-03-11T01:32:08.759Z,97.23047
2023-03-11T01:37:08.721Z,97.13574
2023-03-11T01:42:08.968Z,97.14453
2023-03-11T01:47:19.692Z,97.12109
2023-03-11T01:52:10.503Z,97.18652
2023-03-11T01:57:10.587Z,97.39551
2023-03-11T02:02:11.766Z,97.24512
2023-03-11T02:07:11.101Z,97.24316
2023-03-11T02:12:10.146Z,97.34473
2023-03-11T02:17:08.635Z,97.39453
2023-03-11T02:22:08.509Z,97.45898
2023-03-11T02:27:10.547Z,97.40137
2023-03-11T02:32:10.494Z,97.47266
2023-03-11T02:37:09.490Z,97.42188
2023-03-11T02:42:12.058Z,97.32129
2023-03-11T02:47:08.768Z,97.39941
2023-03-11T02:52:09.290Z,97.2793
2023-03-11T02:57:08.373Z,97.45313
2023-03-11T03:02:08.664Z,97.40234
2023-03-11T03:07:08.496Z,97.29492
2023-03-11T03:12:11.605Z,97.30469
2023-03-11T03:17:08.805Z,97.06641
2023-03-11T03:22:11.185Z,97.04102
2023-03-11T03:27:09.675Z,97.38867
2023-03-11T03:32:08.668Z,97.18945
2023-03-11T03:37:09.880Z,97.00195
2023-03-11T03:42:08.745Z,97.2998
2023-03-11T03:47:08.602Z,97.18262
2023-03-11T03:52:09.799Z,97.41602
2023-03-11T03:57:08.599Z,97.16211
2023-03-11T04:02:08.626Z,97.13477
2023-03-11T04:07:08.535Z,97.01953
2023-03-11T04:12:08.573Z,96.83594
2023-03-11T04:17:08.521Z,97.02637
2023-03-11T04:22:08.582Z,96.90918
2023-03-11T04:27:08.481Z,96.91016
2023-03-11T04:32:08.731Z,96.86523
2023-03-11T04:37:08.492Z,97.06055
2023-03-11T04:42:08.568Z,96.9668
2023-03-11T04:47:08.648Z,97.13965
2023-03-11T04:52:08.832Z,96.99023
2023-03-11T04:57:08.565Z,96.94238
2023-03-11T05:02:08.498Z,96.85645
2023-03-11T05:07:08.578Z,96.96582
2023-03-11T05:12:10.545Z,96.87207
2023-03-11T05:17:10.000Z,96.92969
2023-03-11T05:22:09.630Z,96.66113
2023-03-11T05:27:08.970Z,96.9375
2023-03-11T05:32:08.548Z,96.63281
2023-03-11T05:37:08.371Z,96.64746
2023-03-11T05:42:08.853Z,96.63477
2023-03-11T05:47:08.731Z,96.61621
2023-03-11T05:52:08.617Z,96.83008
2023-03-11T05:57:08.405Z,96.75781
2023-03-11T06:02:08.877Z,96.61914
2023-03-11T06:07:13.118Z,96.58301
2023-03-11T06:12:08.605Z,96.33398
2023-03-11T06:17:08.731Z,96.62793
2023-03-11T06:22:08.274Z,96.27148
2023-03-11T06:27:09.041Z,96.52246
2023-03-11T06:32:08.832Z,96.33105
2023-03-11T06:37:08.361Z,96.24414
2023-03-11T06:42:08.610Z,96.08301
2023-03-11T06:47:08.439Z,96.2373
2023-03-11T06:52:08.779Z,96.15723
2023-03-11T06:57:10.596Z,95.93457
2023-03-11T07:02:08.592Z,95.92773
2023-03-11T07:07:08.381Z,95.70703
2023-03-11T07:12:08.767Z,95.57129
2023-03-11T07:17:08.299Z,95.44629
2023-03-11T07:22:08.241Z,95.31152
2023-03-11T07:27:08.812Z,96.22949
2023-03-11T07:32:08.740Z,95.59473
2023-03-11T07:37:08.603Z,95.18262
2023-03-11T07:42:08.750Z,96.08984
2023-03-11T07:47:10.519Z,96.3291
2023-03-11T07:52:08.711Z,95.94531
2023-03-11T07:57:12.849Z,95.55273
2023-03-11T08:02:08.380Z,95.63086
2023-03-11T08:07:08.555Z,95.02344
2023-03-11T08:12:08.688Z,95.62109
2023-03-11T08:17:10.778Z,94.91016
2023-03-11T08:22:09.331Z,94.78613
2023-03-11T08:27:09.683Z,94.63867
2023-03-11T08:32:08.794Z,95.03516
2023-03-11T08:37:08.658Z,94.13672
2023-03-11T08:42:08.654Z,93.85254
2023-03-11T08:47:08.494Z,93.62891
2023-03-11T08:52:09.464Z,93.70117
2023-03-11T08:57:08.272Z,91.8125
2023-03-11T09:02:08.400Z,91.29492
2023-03-11T09:07:08.438Z,89.9541
2023-03-11T09:12:08.600Z,90.62305
2023-03-11T09:17:08.529Z,89.4668
2023-03-11T09:22:08.384Z,89.97754
2023-03-11T09:27:08.638Z,88.67285
2023-03-11T09:32:08.658Z,87.99121
2023-03-11T09:37:08.482Z,87.15918
2023-03-11T09:42:16.834Z,86.87695
2023-03-11T09:47:19.290Z,86.94043
2023-03-11T09:52:13.348Z,85.78809
2023-03-11T09:57:09.842Z,85.53906
2023-03-11T10:02:09.096Z,84.72559
2023-03-11T10:07:14.288Z,85.00977
2023-03-11T10:12:20.393Z,86.31445
2023-03-11T10:17:13.942Z,87.23242
2023-03-11T10:22:13.400Z,87.20703
2023-03-11T10:27:13.072Z,86.3457
2023-03-11T10:32:10.378Z,87.69434
2023-03-11T10:37:14.605Z,87.53125
2023-03-11T10:42:09.630Z,88.4541
2023-03-11T10:47:08.905Z,88.9043
2023-03-11T10:52:08.690Z,88.06152
2023-03-11T10:57:11.538Z,86.99414
2023-03-11T11:02:22.283Z,88.72754
2023-03-11T11:07:22.801Z,88.58203
2023-03-11T11:12:10.293Z,85.56152
2023-03-11T11:17:08.410Z,86.89258
2023-03-11T11:22:15.728Z,85.84668
2023-03-11T11:27:19.434Z,87.56543
2023-03-11T11:32:20.671Z,86.79883
2023-03-11T11:37:09.043Z,86.86426
2023-03-11T11:42:09.715Z,86.27441
2023-03-11T11:47:15.078Z,86.38574
2023-03-11T11:52:10.716Z,85.80762
2023-03-11T11:57:14.508Z,85.40527
2023-03-11T12:02:16.519Z,86.5752
2023-03-11T12:07:17.204Z,85.53223
2023-03-11T12:12:12.506Z,85.13672
2023-03-11T12:17:08.880Z,85.06152
2023-03-11T12:22:18.846Z,83.37695
2023-03-11T12:27:11.976Z,83.95117
2023-03-11T12:32:08.883Z,83.7793
2023-03-11T12:37:17.006Z,86.37793
2023-03-11T12:42:25.008Z,86.87207
2023-03-11T12:47:20.948Z,85.7627
2023-03-11T12:52:09.491Z,83.35645
2023-03-11T12:57:11.961Z,90.09473
2023-03-11T13:02:21.151Z,86.26074
2023-03-11T13:07:32.600Z,84.13867
2023-03-11T13:12:19.271Z,84.40332
2023-03-11T13:17:24.789Z,83.46777
2023-03-11T13:22:08.888Z,83.57813
2023-03-11T13:27:15.069Z,82.92578
2023-03-11T13:32:16.937Z,82.72559
2023-03-11T13:37:17.250Z,81.17676
2023-03-11T13:42:17.335Z,80.25293
2023-03-11T13:47:12.244Z,88.33301
2023-03-11T13:52:11.807Z,83.29297
2023-03-11T13:57:08.879Z,79.00879
2023-03-11T14:02:17.207Z,80.41797
2023-03-11T14:07:15.515Z,79.88867
2023-03-11T14:12:14.496Z,81.43945
2023-03-11T14:17:08.784Z,81.38086
2023-03-11T14:22:13.977Z,82.44043
2023-03-11T14:27:11.536Z,84.58496
2023-03-11T14:32:18.206Z,82.79492
2023-03-11T14:37:19.288Z,85.11035
2023-03-11T14:42:12.048Z,84.0791
2023-03-11T14:47:13.202Z,80.80664
2023-03-11T14:52:11.813Z,82.78125
2023-03-11T14:57:11.171Z,81.70996
2023-03-11T15:02:18.657Z,81.63867
2023-03-11T15:07:09.045Z,84.01172
2023-03-11T15:12:08.399Z,80.46387
2023-03-11T15:17:33.808Z,80.2002
2023-03-11T15:22:10.440Z,78.48828
2023-03-11T15:27:09.576Z,80.41895
2023-03-11T15:32:18.157Z,80.00977
2023-03-11T15:37:10.488Z,79.44141
2023-03-11T15:42:16.241Z,80.87988
2023-03-11T15:47:08.257Z,79.78418
2023-03-11T15:52:08.461Z,79.05859
2023-03-11T15:57:10.638Z,79.91602
2023-03-11T16:02:08.238Z,79.39355
2023-03-11T16:07:08.870Z,79.96289
2023-03-11T16:12:13.075Z,80.80762
2023-03-11T16:17:08.294Z,81.3291
2023-03-11T16:22:08.319Z,82.2207
2023-03-11T16:27:08.083Z,84.38672
2023-03-11T16:32:08.377Z,85.20215
2023-03-11T16:37:08.456Z,86.24121
2023-03-11T16:42:08.420Z,87.47461
2023-03-11T16:47:08.392Z,87.77832
2023-03-11T16:52:08.364Z,87.99316
2023-03-11T16:57:08.115Z,88.53516
2023-03-11T17:02:08.159Z,88.72852
2023-03-11T17:07:08.271Z,88.71875
2023-03-11T17:12:11.901Z,89.5957
2023-03-11T17:17:08.376Z,90.60742
2023-03-11T17:22:08.643Z,90.83496
2023-03-11T17:27:08.099Z,91.80273
2023-03-11T17:32:08.678Z,90.71289
2023-03-11T17:37:08.108Z,91.19043
2023-03-11T17:42:08.304Z,91.86035
2023-03-11T17:47:08.174Z,92.40527
2023-03-11T17:52:08.434Z,93.71387
2023-03-11T17:57:08.164Z,93.78809
2023-03-11T18:02:08.265Z,93.98438
2023-03-11T18:07:08.129Z,93.93066
2023-03-11T18:12:08.506Z,93.76465
2023-03-11T18:17:08.287Z,93.96777
2023-03-11T18:22:08.145Z,93.90332
2023-03-11T18:27:08.260Z,93.67285
2023-03-11T18:32:08.252Z,92.97168
2023-03-11T18:37:08.101Z,92.53711
2023-03-11T18:42:08.337Z,92.51172
2023-03-11T18:47:08.414Z,92.58301
2023-03-11T18:52:08.973Z,92.58789
2023-03-11T18:57:08.217Z,92.73145
2023-03-11T19:02:08.250Z,93.10059
2023-03-11T19:07:08.117Z,92.83105
2023-03-11T19:12:08.125Z,93.07617
2023-03-11T19:17:08.502Z,93.44824
2023-03-11T19:22:08.297Z,93.61816
2023-03-11T19:27:08.317Z,93.58594
2023-03-11T19:32:08.333Z,93.58008
2023-03-11T19:37:08.397Z,93.76172
2023-03-11T19:42:08.193Z,93.73242
2023-03-11T19:47:08.070Z,93.62402
2023-03-11T19:52:09.677Z,93.96875
2023-03-11T19:57:08.330Z,93.9043
2023-03-11T20:02:08.123Z,94.10254
2023-03-11T20:07:08.497Z,93.96484
2023-03-11T20:12:08.492Z,94.06543
2023-03-11T20:17:08.173Z,93.8418
2023-03-11T20:22:10.951Z,94.0498
2023-03-11T20:27:08.140Z,94.80469
2023-03-11T20:32:08.305Z,94.38477
2023-03-11T20:37:08.179Z,94.36328
2023-03-11T20:42:09.544Z,94.45215
2023-03-11T20:47:08.146Z,94.21094
2023-03-11T20:52:08.522Z,94.5791
2023-03-11T20:57:08.354Z,93.93457
2023-03-11T21:02:08.435Z,93.8291
2023-03-11T21:07:11.134Z,94.42188
2023-03-11T21:12:08.581Z,94.48828
2023-03-11T21:17:08.221Z,94.23633
2023-03-11T21:22:08.228Z,94.16504
2023-03-11T21:27:08.124Z,94.34668
2023-03-11T21:32:08.504Z,94.62012
2023-03-11T21:37:08.277Z,94.37891
2023-03-11T21:42:08.415Z,94.05566
2023-03-11T21:47:08.287Z,93.8916
2023-03-11T21:52:08.233Z,94.37891
2023-03-11T21:57:08.200Z,94.14844
2023-03-11T22:02:08.341Z,94.1748
2023-03-11T22:07:08.435Z,94.05469
2023-03-11T22:12:08.498Z,94.06543
2023-03-11T22:17:08.993Z,94.31738
2023-03-11T22:22:08.204Z,94.22266
2023-03-11T22:27:08.166Z,94.17285
2023-03-11T22:32:08.408Z,94.53418
2023-03-11T22:37:08.111Z,93.71484
2023-03-11T22:42:08.236Z,94.19727
2023-03-11T22:47:08.018Z,94.29199
2023-03-11T22:52:08.430Z,94.28125
2023-03-11T22:57:08.233Z,94.31543
2023-03-11T23:02:08.246Z,94.58301
2023-03-11T23:07:08.012Z,94.40527
2023-03-11T23:12:08.426Z,94.26563
2023-03-11T23:17:08.210Z,94.16504
2023-03-11T23:22:08.135Z,94.5459
2023-03-11T23:27:08.329Z,94.47559
2023-03-11T23:32:08.393Z,94.57715
2023-03-11T23:37:08.262Z,94.41406
2023-03-11T23:42:22.640Z,95.06152
2023-03-11T23:47:08.616Z,94.38867
2023-03-11T23:52:08.333Z,94.39941
2023-03-11T23:57:08.073Z,94.76953
